Address 0xb28837949e7a3f1ac862036e8a0ae392c9ff9bb4 22

 
Txn Hash Method
Block
From
To
Value [Txn Fee]
0x222eb0fa50ac4d3274b9eb12311d87f89832c5c974dca30754b237c7668ba805Execute2005995492024-04-13 13:08:001 min agoAxelar: Relayer 3OUT Axelar Network : Gateway0 ETH0.00001301 0.01
0x171db1df02044e4c3948d25c1089d0a66de04ed3e0acf88aaec730b79d457861Execute With Tok...2005979352024-04-13 13:01:108 mins agoAxelar: Relayer 3OUT 0xce16f69375520ab01377ce7b88f5ba8c48f8d6660 ETH0.00000269 0.01
0x3f0878b6b1a2bc756d3a8942ac3cfc87b1733623f78bb4c9e9e20ec5c0b9bfa9Execute2005963072024-04-13 12:54:2115 mins agoAxelar: Relayer 3OUT Axelar Network : Gateway0 ETH0.00001236 0.01
0x369cf0d0803625a7be1b7dd18f1d1fb8491dbcc684e88a26c9bdf1875bd8e1d5Execute2005948392024-04-13 12:48:1321 mins agoAxelar: Relayer 3OUT Axelar Network : Gateway0 ETH0.0000145 0.01
0x9551c3545aa587cb4ec91f6862effa8a70720f04a3890bdf85c884d81a363176Execute With Tok...2005931932024-04-13 12:41:2028 mins agoAxelar: Relayer 3OUT 0xce16f69375520ab01377ce7b88f5ba8c48f8d6660 ETH0.00000217 0.01
0xb36b588d8bfb601e7c164b0354af17fa2e8fc5fcc2355d8ad4674552b960f98fExecute2005926812024-04-13 12:39:1030 mins agoAxelar: Relayer 3OUT Axelar Network : Gateway0 ETH0.00001225 0.011943
0x1beeecd0a73e3e34e7236d5fc4f41e88dda19151bf77776b8e623524bc2c65adExecute With Tok...2005915512024-04-13 12:34:2534 mins agoAxelar: Relayer 3OUT 0xce16f69375520ab01377ce7b88f5ba8c48f8d6660 ETH0.00000251 0.01
0x68f694436408c2b0d2fcb3d8f9b5ef24ad55c48456e44359cc8191a41ef993b9Execute2005905822024-04-13 12:30:1139 mins agoAxelar: Relayer 3OUT Axelar Network : Gateway0 ETH0.00001132 0.01
0x2f7fd7ecf36408bf43052086dc48ed3b9e12b02f93a5e2230b979cbde3ce7e77Execute2005891432024-04-13 12:24:1045 mins agoAxelar: Relayer 3OUT Axelar Network : Gateway0 ETH0.00001131 0.01
0x7c585e34eb94905a7342365221f15dfbe5178bb944dec66b37aade4b2d5182acExecute With Tok...2005869792024-04-13 12:15:1154 mins agoAxelar: Relayer 3OUT 0xce16f69375520ab01377ce7b88f5ba8c48f8d6660 ETH0.0000018 0.01
0x2891d806f241e25321d5fd569951be1101a450e67f8bff4b96df2d80b0bfd3b1Execute With Tok...2005853332024-04-13 12:08:151 hr 1 min agoAxelar: Relayer 3OUT 0xce16f69375520ab01377ce7b88f5ba8c48f8d6660 ETH0.00000226 0.01
0x39edef133bf288a979c2389094748362392f20febbf07191c14297ca0a7caa5cExecute2005848452024-04-13 12:06:131 hr 3 mins agoAxelar: Relayer 3OUT Axelar Network : Gateway0 ETH0.00001358 0.01
0x6a03dee40e94d37d812e97ded75f7acc5ee1d9c62e93b569b1fb020476b52e1cExecute2005841282024-04-13 12:03:151 hr 6 mins agoAxelar: Relayer 3OUT Axelar Network : Gateway0 ETH0.00001509 0.01
0x96fa5bb730978f8f0e5fdcf4a941a19aab8d8384c7d72b4827af25c92c391790Execute With Tok...2005824542024-04-13 11:56:161 hr 13 mins agoAxelar: Relayer 3OUT 0xce16f69375520ab01377ce7b88f5ba8c48f8d6660 ETH0.00000216 0.01
0xdbc28e98b601c30d3d3e7af91106613678cbf4647054b1959a30f44de70a8350Execute2005812672024-04-13 11:51:191 hr 18 mins agoAxelar: Relayer 3OUT Axelar Network : Gateway0 ETH0.00001418 0.01
0x15301779ec744df3520b86863503a59dbec39b1d602952033cddb7b161203726Execute2005795952024-04-13 11:44:211 hr 25 mins agoAxelar: Relayer 3OUT Axelar Network : Gateway0 ETH0.00001213 0.01
0x09949ed48e0907095bebdbfe8525899a68604b3c2d54b869b495b0ca3f7e0085Execute2005786072024-04-13 11:40:131 hr 29 mins agoAxelar: Relayer 3OUT Axelar Network : Gateway0 ETH0.00001223 0.01
0x9316421773a263303478359714118de6c9d3cd32be4132ef4bf8407755c1c901Execute With Tok...2005755102024-04-13 11:27:151 hr 42 mins agoAxelar: Relayer 3OUT 0xce16f69375520ab01377ce7b88f5ba8c48f8d6660 ETH0.000002 0.01
0x251677fd2c7963b43c1875c44383877e48031d9d15d49dd87cb73baa8c3fdc06Execute With Tok...2005735952024-04-13 11:19:161 hr 50 mins agoAxelar: Relayer 3OUT 0xce16f69375520ab01377ce7b88f5ba8c48f8d6660 ETH0.00000209 0.01
0x4e4d2a9cec764a834311aea4d1e4d93334f02a143f90b8495ecd6e6d7f80da7aExecute With Tok...2005724212024-04-13 11:14:201 hr 55 mins agoAxelar: Relayer 3OUT 0xce16f69375520ab01377ce7b88f5ba8c48f8d6660 ETH0.00000208 0.01
0x516fb21a342692400b221dede618a745b355db112ac5f71021ca4a61dc3f04fcExecute2005712032024-04-13 11:09:102 hrs agoAxelar: Relayer 3OUT 0x17e709c28695901665da8999ed54c0cfeaffe51e0 ETH0.00000296 0.01
0x761e8bdc131470f7dfacd68d014aeb7b5c397c04dc12d91a4b791565100707adExecute2005702582024-04-13 11:05:142 hrs 4 mins agoAxelar: Relayer 3OUT Axelar Network : Gateway0 ETH0.00001331 0.01
0xf0fa0e91f0d6526cbcfee8d1be877be3ccdbd885f0be570dcdd40fff1e199ce1Execute With Tok...2005688272024-04-13 10:59:152 hrs 10 mins agoAxelar: Relayer 3OUT 0xce16f69375520ab01377ce7b88f5ba8c48f8d6660 ETH0.00000259 0.01
0x7446313d44c91e982b7562bb56976a62f939d7ba970fdec8c9cac2e0db027cb8Execute With Tok...2005674072024-04-13 10:53:202 hrs 16 mins agoAxelar: Relayer 3OUT 0xce16f69375520ab01377ce7b88f5ba8c48f8d6660 ETH0.00000231 0.01
0xd25ddaf6f6a53278a45f67be2f5459b3a382c25e5c95b86dcd4b23ac204bafabExecute With Tok...2005654692024-04-13 10:45:162 hrs 24 mins agoAxelar: Relayer 3OUT 0xce16f69375520ab01377ce7b88f5ba8c48f8d6660 ETH0.00000272 0.01
[ Download CSV Export 

OVERVIEW

Axelar delivers secure cross-chain communication for Web3, enabling users to build Interchain dApps that grow beyond a single chain

Parent Txn Hash Block From To Value
Loading

Contract Name:
0 ETH

Compiler Version
0

Optimization Enabled:
0 ETH

Other Settings:
-NA-
Block Transaction Gas Used Reward
Age Block Fee Address BC Fee Address Voting Power Jailed Incoming
Block Uncle Number Difficulty Gas Used Reward
Loading
Make sure to use the "Vote Down" button for any spammy posts, and the "Vote Up" for interesting conversations.